Fire 1 — WDD7053 — position and weather

sailwx.info

Track history (hours):
 
Tides and Currents Weather Stations Pressure Air Temp Water Temp Dewpoint Dewpoint Depression Visibility Wind Speed Wind Dir Waves Ship Positions

Fire 1

More information available from US FCC via Universal Licensing System and Coast Guard Vessel Documentation Center.

Last reported at 2014-Aug-01 23:32 UTC. Time now 2014-Aug-02 00:19 UTC.
Position N 47°35' W 122°16'.

Length 15 m; draft 0.8 m.

Type: Other ship. MMSI: 367181280.

Date/timePositionNaut miles runAvg speedWind from/ knotsBaromVisibWave heightAir tempDewpointWater temp
2014-Aug-01 23:32N 47°35' W 122°16'0 0.2
2014-Aug-01 23:16N 47°35' W 122°16'0 0.2
2014-Aug-01 22:30N 47°35' W 122°17'0 0.9
2014-Aug-01 22:26N 47°35' W 122°17'0 0.3
2014-Aug-01 21:06N 47°35' W 122°16'0 0.0
2014-Aug-01 20:00N 47°35' W 122°16'0 0.0
2014-Aug-01 19:30N 47°35' W 122°16'0 0.0
2014-Aug-01 19:00N 47°35' W 122°16'0 0.0
2014-Aug-01 18:33N 47°35' W 122°16'0 0.0
2014-Aug-01 15:33N 47°35' W 122°16'1 4.4
2014-Aug-01 15:24N 47°35' W 122°17'4 4.9
2014-Aug-01 14:34N 47°39' W 122°20'0 5.2
2014-Aug-01 14:30N 47°39' W 122°20'2 1.8
2014-Aug-01 13:22N 47°39' W 122°23'0 0.0
2014-Aug-01 12:31N 47°39' W 122°23'0 0.0
2014-Aug-01 11:31N 47°39' W 122°23'0 0.0
2014-Aug-01 08:13N 47°39' W 122°23'0 0.0
2014-Aug-01 05:19N 47°39' W 122°23'0 0.0
2014-Aug-01 04:31N 47°39' W 122°23'0 0.0
2014-Aug-01 03:52N 47°39' W 122°23'0 0.0
2014-Aug-01 03:16N 47°39' W 122°23'0 0.0
2014-Aug-01 01:28N 47°39' W 122°23'0 0.0
2014-Aug-01 00:16N 47°39' W 122°23'0 0.0
2014-Jul-31 23:34N 47°39' W 122°23'0 0.0
2014-Jul-31 23:32N 47°39' W 122°23'3 3.3
2014-Jul-31 22:34N 47°39' W 122°18'0 4.0
2014-Jul-31 22:31N 47°39' W 122°18'4 2.5
2014-Jul-31 20:50N 47°35' W 122°16'0 0.0
2014-Jul-31 20:29N 47°35' W 122°16'0 0.0
2014-Jul-31 20:20N 47°35' W 122°16'0 0.6
2014-Jul-31 19:30N 47°35' W 122°17'0 0.1
2014-Jul-31 17:33N 47°35' W 122°16'1 3.6
2014-Jul-31 17:19N 47°36' W 122°17'4 4.9
2014-Jul-31 16:33N 47°39' W 122°20'0 5.1
2014-Jul-31 16:29N 47°39' W 122°20'2 2.1
2014-Jul-31 15:31N 47°39' W 122°23'0 0.0
2014-Jul-31 15:25N 47°39' W 122°23'0 0.0
2014-Jul-31 14:31N 47°39' W 122°23'0 0.0
2014-Jul-31 14:25N 47°39' W 122°23'0 0.0
2014-Jul-31 13:31N 47°39' W 122°23'0 0.0
2014-Jul-31 13:19N 47°39' W 122°23'0 0.0
2014-Jul-31 12:19N 47°39' W 122°23'0 0.0
2014-Jul-31 12:19N 47°39' W 122°23'0 0.0
2014-Jul-31 11:31N 47°39' W 122°23'0 0.0
2014-Jul-31 11:19N 47°39' W 122°23'0 0.0
2014-Jul-31 10:31N 47°39' W 122°23'0 0.0
2014-Jul-31 10:19N 47°39' W 122°23'0 0.0
2014-Jul-31 09:31N 47°39' W 122°23'0 0.0
2014-Jul-31 09:28N 47°39' W 122°23'0 0.0
2014-Jul-31 08:31N 47°39' W 122°23'0 0.0
2014-Jul-31 08:28N 47°39' W 122°23'0 0.0
2014-Jul-31 07:31N 47°39' W 122°23'0 0.0
2014-Jul-31 07:28N 47°39' W 122°23'0 0.0
2014-Jul-31 06:31N 47°39' W 122°23'0 0.0
2014-Jul-31 06:28N 47°39' W 122°23'0 0.0
2014-Jul-31 05:58N 47°39' W 122°23'0 0.0
2014-Jul-31 05:31N 47°39' W 122°23'0 0.0
2014-Jul-31 04:28N 47°39' W 122°23'0 0.1
2014-Jul-31 04:22N 47°39' W 122°23'0 0.0
2014-Jul-31 03:31N 47°39' W 122°23'0 0.0
2014-Jul-31 03:22N 47°39' W 122°23'0 0.0
2014-Jul-31 02:31N 47°39' W 122°23'0 0.0
2014-Jul-31 02:22N 47°39' W 122°23'0 0.0
2014-Jul-31 01:31N 47°39' W 122°23'0 0.0
2014-Jul-31 01:22N 47°39' W 122°23'0 0.0
2014-Jul-31 00:31N 47°39' W 122°23'0 0.0
2014-Jul-31 00:31N 47°39' W 122°23'0 0.0
2014-Jul-30 23:31N 47°39' W 122°23'0 0.0
2014-Jul-30 23:31N 47°39' W 122°23'0 0.0
2014-Jul-30 22:31N 47°39' W 122°23'0 0.0
2014-Jul-30 22:31N 47°39' W 122°23'0 0.0
2014-Jul-30 21:31N 47°39' W 122°23'0 0.0
2014-Jul-30 21:31N 47°39' W 122°23'0 0.0
2014-Jul-30 20:25N 47°39' W 122°23'0 0.0
2014-Jul-30 20:16N 47°39' W 122°23'0 0.0
2014-Jul-30 19:31N 47°39' W 122°23'0 0.0
2014-Jul-30 19:31N 47°39' W 122°23'0 0.0
2014-Jul-30 18:31N 47°39' W 122°23'0 0.0
2014-Jul-30 18:10N 47°39' W 122°23'0 0.0
2014-Jul-30 17:31N 47°39' W 122°23'0 0.0
2014-Jul-30 17:25N 47°39' W 122°23'0 0.0
2014-Jul-30 16:31N 47°39' W 122°23'0 0.0
2014-Jul-30 16:25N 47°39' W 122°23'0 0.0
2014-Jul-30 15:31N 47°39' W 122°23'0 0.0
2014-Jul-30 15:25N 47°39' W 122°23'0 0.0
2014-Jul-30 14:31N 47°39' W 122°23'0 0.0
2014-Jul-30 14:25N 47°39' W 122°23'0 0.0
2014-Jul-30 13:31N 47°39' W 122°23'0 0.0
2014-Jul-30 13:19N 47°39' W 122°23'0 0.0
2014-Jul-30 12:31N 47°39' W 122°23'0 0.0
2014-Jul-30 12:19N 47°39' W 122°23'0 0.0
2014-Jul-30 11:31N 47°39' W 122°23'0 0.0
2014-Jul-30 11:19N 47°39' W 122°23'0 0.0
2014-Jul-30 10:31N 47°39' W 122°23'0 0.1
2014-Jul-30 10:28N 47°39' W 122°23'0 0.0
2014-Jul-30 09:31N 47°39' W 122°23'0 0.1
2014-Jul-30 09:28N 47°39' W 122°23'0 0.0
2014-Jul-30 08:31N 47°39' W 122°23'0 0.1
2014-Jul-30 08:28N 47°39' W 122°23'0 0.0
2014-Jul-30 07:31N 47°39' W 122°23'0 0.0
2014-Jul-30 07:13N 47°39' W 122°23'0 0.0
2014-Jul-30 06:31N 47°39' W 122°23'0 0.1
2014-Jul-30 06:28N 47°39' W 122°23'0 0.0
2014-Jul-30 05:58N 47°39' W 122°23'0 0.0
2014-Jul-30 05:31N 47°39' W 122°23'0 0.0
2014-Jul-30 04:31N 47°39' W 122°23'0 0.0
2014-Jul-30 04:22N 47°39' W 122°23'0 0.0
2014-Jul-30 03:31N 47°39' W 122°23'0 0.0
2014-Jul-30 03:22N 47°39' W 122°23'0 0.0
2014-Jul-30 02:31N 47°39' W 122°23'0 0.0
2014-Jul-30 02:22N 47°39' W 122°23'0 0.0
2014-Jul-30 01:31N 47°39' W 122°23'0 0.0
2014-Jul-30 01:16N 47°39' W 122°23'0 0.0
2014-Jul-30 00:31N 47°39' W 122°23'0 0.0
2014-Jul-30 00:22N 47°39' W 122°23'0 0.0
2014-Jul-29 23:31N 47°39' W 122°23'0 0.0
2014-Jul-29 22:31N 47°39' W 122°23'0 0.0
2014-Jul-29 22:31N 47°39' W 122°23'0 0.0
2014-Jul-29 21:31N 47°39' W 122°23'0 0.0
2014-Jul-29 21:25N 47°39' W 122°23'0 0.0
2014-Jul-29 20:31N 47°39' W 122°23'0 0.0
2014-Jul-29 20:25N 47°39' W 122°23'0 0.0
2014-Jul-29 19:31N 47°39' W 122°23'0 0.0
2014-Jul-29 19:25N 47°39' W 122°23'0 0.0
2014-Jul-29 18:31N 47°39' W 122°23'0 0.0
2014-Jul-29 18:25N 47°39' W 122°23'0 0.0
2014-Jul-29 17:31N 47°39' W 122°23'0 0.0
2014-Jul-29 17:25N 47°39' W 122°23'0 0.0
2014-Jul-29 16:31N 47°39' W 122°23'0 0.0
2014-Jul-29 16:19N 47°39' W 122°23'0 0.0
2014-Jul-29 15:31N 47°39' W 122°23'0 0.0
2014-Jul-29 15:19N 47°39' W 122°23'0 0.0
2014-Jul-29 14:31N 47°39' W 122°23'0 0.0
2014-Jul-29 14:19N 47°39' W 122°23'0 0.0
2014-Jul-29 13:31N 47°39' W 122°23'0 0.0
2014-Jul-29 13:19N 47°39' W 122°23'0 0.0
2014-Jul-29 12:31N 47°39' W 122°23'0 0.0
2014-Jul-29 12:28N 47°39' W 122°23'0 0.0
2014-Jul-29 11:31N 47°39' W 122°23'0 0.0
2014-Jul-29 11:13N 47°39' W 122°23'0 0.0
2014-Jul-29 10:22N 47°39' W 122°23'0 0.0
2014-Jul-29 10:13N 47°39' W 122°23'0 0.0
2014-Jul-29 08:31N 47°39' W 122°23'0 0.0
2014-Jul-29 08:31N 47°39' W 122°23'0 0.0
2014-Jul-29 07:31N 47°39' W 122°23'0 0.0
2014-Jul-29 07:31N 47°39' W 122°23'0 0.0
2014-Jul-29 06:31N 47°39' W 122°23'0 0.0
2014-Jul-29 06:31N 47°39' W 122°23'0 0.0
2014-Jul-29 05:55N 47°39' W 122°23'0 0.0
2014-Jul-29 05:31N 47°39' W 122°23'0 0.0
2014-Jul-29 04:31N 47°39' W 122°23'0 0.0
2014-Jul-29 04:25N 47°39' W 122°23'0 0.0
2014-Jul-29 03:31N 47°39' W 122°23'0 0.0
2014-Jul-29 03:25N 47°39' W 122°23'0 0.0
2014-Jul-29 02:31N 47°39' W 122°23'0 0.0
2014-Jul-29 02:25N 47°39' W 122°23'0 0.0
2014-Jul-29 01:31N 47°39' W 122°23'0 0.0
2014-Jul-29 01:19N 47°39' W 122°23'0 0.0
2014-Jul-29 00:31N 47°39' W 122°23'0 0.0
2014-Jul-29 00:19N 47°39' W 122°23'0 0.0
2014-Jul-28 23:31N 47°39' W 122°23'0 0.0
2014-Jul-28 23:19N 47°39' W 122°23'0 0.0
2014-Jul-28 22:31N 47°39' W 122°23'0 0.0
2014-Jul-28 22:19N 47°39' W 122°23'0 0.0
2014-Jul-28 21:31N 47°39' W 122°23'0 0.0
2014-Jul-28 21:19N 47°39' W 122°23'0 0.0
2014-Jul-28 20:31N 47°39' W 122°23'0 0.0
2014-Jul-28 20:28N 47°39' W 122°23'0 0.0
2014-Jul-28 19:32N 47°39' W 122°23'0 0.0
2014-Jul-28 19:23N 47°39' W 122°23'0 0.0
2014-Jul-28 18:29N 47°39' W 122°23'0 0.0
2014-Jul-28 18:23N 47°39' W 122°23'0 0.0
2014-Jul-28 17:32N 47°39' W 122°23'0 0.0
2014-Jul-28 17:23N 47°39' W 122°23'0 0.0
2014-Jul-28 16:32N 47°39' W 122°23'0 0.0
2014-Jul-28 16:32N 47°39' W 122°23'0 0.0
2014-Jul-28 15:32N 47°39' W 122°23'0 0.0
2014-Jul-28 15:32N 47°39' W 122°23'0 0.0
2014-Jul-28 12:32N 47°39' W 122°23'0 0.0
2014-Jul-28 12:32N 47°39' W 122°23'0 0.0
2014-Jul-28 11:32N 47°39' W 122°23'0 0.0
2014-Jul-28 11:26N 47°39' W 122°23'0 0.0
2014-Jul-28 10:32N 47°39' W 122°23'0 0.1
2014-Jul-28 10:26N 47°39' W 122°23'0 0.0
2014-Jul-28 09:32N 47°39' W 122°23'0 0.0
2014-Jul-28 09:20N 47°39' W 122°23'0 0.0
2014-Jul-28 08:29N 47°39' W 122°23'0 0.0
2014-Jul-28 08:20N 47°39' W 122°23'0 0.0
2014-Jul-28 07:32N 47°39' W 122°23'0 0.0
2014-Jul-28 07:20N 47°39' W 122°23'0 0.0
2014-Jul-28 06:32N 47°39' W 122°23'0 0.0
2014-Jul-28 06:20N 47°39' W 122°23'0 0.0
2014-Jul-28 05:59N 47°39' W 122°23'0 0.0
2014-Jul-28 05:32N 47°39' W 122°23'0 0.0
2014-Jul-28 04:32N 47°39' W 122°23'0 0.0
2014-Jul-28 04:29N 47°39' W 122°23'0 0.0
2014-Jul-28 03:20N 47°39' W 122°23'0 0.0
2014-Jul-28 03:14N 47°39' W 122°23'0 0.0
2014-Jul-28 02:32N 47°39' W 122°23'0 0.0
2014-Jul-28 02:29N 47°39' W 122°23'0 0.0
2014-Jul-28 01:32N 47°39' W 122°23'0 0.0
2014-Jul-28 01:29N 47°39' W 122°23'0 0.0
2014-Jul-28 00:32N 47°39' W 122°23'0 0.0
2014-Jul-28 00:23N 47°39' W 122°23'0 0.0
2014-Jul-27 23:32N 47°39' W 122°23'0 0.0
2014-Jul-27 23:23N 47°39' W 122°23'0 0.0
2014-Jul-27 22:32N 47°39' W 122°23'0 0.0
2014-Jul-27 22:23N 47°39' W 122°23'0 0.0
2014-Jul-27 21:32N 47°39' W 122°23'0 0.0
2014-Jul-27 21:23N 47°39' W 122°23'0 0.0
2014-Jul-27 20:32N 47°39' W 122°23'0 0.0
2014-Jul-27 20:32N 47°39' W 122°23'0 0.0
2014-Jul-27 19:32N 47°39' W 122°23'0 0.0
2014-Jul-27 19:32N 47°39' W 122°23'0 0.0
2014-Jul-27 18:32N 47°39' W 122°23'0 0.0
2014-Jul-27 18:32N 47°39' W 122°23'0 0.0
2014-Jul-27 17:32N 47°39' W 122°23'0 0.0
2014-Jul-27 17:32N 47°39' W 122°23'0 0.0
2014-Jul-27 16:32N 47°39' W 122°23'0 0.0
2014-Jul-27 16:29N 47°39' W 122°23'0 0.0
2014-Jul-27 15:32N 47°39' W 122°23'0 0.0
2014-Jul-27 15:32N 47°39' W 122°23'0 0.0
2014-Jul-27 14:32N 47°39' W 122°23'0 0.0
2014-Jul-27 14:26N 47°39' W 122°23'0 0.0
2014-Jul-27 13:32N 47°39' W 122°23'0 0.0
2014-Jul-27 13:11N 47°39' W 122°23'0 0.0
2014-Jul-27 12:32N 47°39' W 122°23'0 0.0
2014-Jul-27 12:26N 47°39' W 122°23'0 0.0
2014-Jul-27 11:32N 47°39' W 122°23'0 0.0
2014-Jul-27 11:26N 47°39' W 122°23'0 0.0
2014-Jul-27 10:32N 47°39' W 122°23'0 0.1
2014-Jul-27 10:26N 47°39' W 122°23'0 0.0
2014-Jul-27 09:32N 47°39' W 122°23'0 0.0
2014-Jul-27 09:20N 47°39' W 122°23'0 0.0
2014-Jul-27 08:32N 47°39' W 122°23'0 0.0
2014-Jul-27 08:20N 47°39' W 122°23'0 0.0
2014-Jul-27 07:32N 47°39' W 122°23'0 0.0
2014-Jul-27 07:20N 47°39' W 122°23'0 0.0
2014-Jul-27 06:32N 47°39' W 122°23'0 0.0
2014-Jul-27 06:29N 47°39' W 122°23'0 0.0
2014-Jul-27 05:59N 47°39' W 122°23'0 0.0
2014-Jul-27 05:32N 47°39' W 122°23'0 0.0
2014-Jul-27 04:32N 47°39' W 122°23'0 0.0
2014-Jul-27 04:29N 47°39' W 122°23'0 0.0
2014-Jul-27 02:47N 47°39' W 122°23'0 0.0
2014-Jul-27 02:32N 47°39' W 122°23'0 0.0
2014-Jul-27 02:32N 47°39' W 122°23'0 0.0
2014-Jul-27 01:32N 47°39' W 122°23'0 0.0
2014-Jul-27 01:32N 47°39' W 122°23'0 0.0
2014-Jul-27 00:32N 47°39' W 122°23'0 0.0
2014-Jul-27 00:32N 47°39' W 122°23'0 0.0
2014-Jul-26 23:32N 47°39' W 122°23'0 0.0
2014-Jul-26 23:32N 47°39' W 122°23'0 0.0
2014-Jul-26 22:32N 47°39' W 122°23'0 0.1
2014-Jul-26 22:26N 47°39' W 122°23'0 0.0
2014-Jul-26 21:29N 47°39' W 122°23'0 0.0
2014-Jul-26 21:26N 47°39' W 122°23'0 0.0
2014-Jul-26 20:29N 47°39' W 122°23'0 0.0
2014-Jul-26 20:26N 47°39' W 122°23'1 1.6
2014-Jul-26 19:33N 47°39' W 122°21'0 6.1
2014-Jul-26 19:31N 47°39' W 122°21'1 0.8
2014-Jul-26 18:26N 47°39' W 122°19'0 0.0
2014-Jul-26 18:25N 47°39' W 122°19'2 2.1
2014-Jul-26 17:34N 47°39' W 122°22'0 2.9
2014-Jul-26 17:25N 47°39' W 122°23'0 0.0
2014-Jul-26 16:31N 47°39' W 122°23'0 0.0
2014-Jul-26 16:25N 47°39' W 122°23'0 0.0
2014-Jul-26 15:31N 47°39' W 122°23'0 0.0
2014-Jul-26 15:25N 47°39' W 122°23'0 0.0
2014-Jul-26 14:31N 47°39' W 122°23'0 0.0
2014-Jul-26 14:25N 47°39' W 122°23'0 0.0
2014-Jul-26 13:31N 47°39' W 122°23'0 0.0
2014-Jul-26 13:25N 47°39' W 122°23'0 0.0
2014-Jul-26 12:31N 47°39' W 122°23'0 0.0
2014-Jul-26 12:25N 47°39' W 122°23'0 0.0
2014-Jul-26 11:28N 47°39' W 122°23'0 0.0
2014-Jul-26 11:19N 47°39' W 122°23'0 0.0
2014-Jul-26 10:28N 47°39' W 122°23'0 0.0
2014-Jul-26 10:19N 47°39' W 122°23'0 0.0
2014-Jul-26 09:31N 47°39' W 122°23'0 0.0
2014-Jul-26 09:19N 47°39' W 122°23'0 0.0
2014-Jul-26 08:31N 47°39' W 122°23'0 0.0
2014-Jul-26 08:28N 47°39' W 122°23'0 0.0
2014-Jul-26 07:01N 47°39' W 122°23'0 0.0
2014-Jul-26 05:19N 47°39' W 122°23'0 0.0
2014-Jul-26 05:19N 47°39' W 122°23'0 0.0
2014-Jul-26 04:31N 47°39' W 122°23'0 0.0
2014-Jul-26 04:28N 47°39' W 122°23'0 0.0
2014-Jul-26 03:31N 47°39' W 122°23'0 0.0
2014-Jul-26 03:28N 47°39' W 122°23'0 0.0
2014-Jul-26 02:16N 47°39' W 122°23'0 0.0
2014-Jul-26 02:07N 47°39' W 122°23'0 0.0
2014-Jul-26 01:31N 47°39' W 122°23'0 0.0
2014-Jul-26 01:07N 47°39' W 122°23'0 0.0
2014-Jul-26 00:28N 47°39' W 122°23'0 0.0
2014-Jul-26 00:22N 47°39' W 122°23'0 0.0
2014-Jul-25 23:31N 47°39' W 122°23'0 0.0
2014-Jul-25 23:22N 47°39' W 122°23'0 0.0
2014-Jul-25 22:33N 47°39' W 122°23'0 0.0
2014-Jul-25 22:27N 47°39' W 122°23'0 0.0
2014-Jul-25 21:33N 47°39' W 122°23'0 0.0
2014-Jul-25 21:21N 47°39' W 122°23'0 0.0
2014-Jul-25 20:33N 47°39' W 122°23'0 0.0
2014-Jul-25 20:21N 47°39' W 122°23'0 0.0
2014-Jul-25 19:33N 47°39' W 122°23'0 0.0
2014-Jul-25 19:21N 47°39' W 122°23'0 0.0
2014-Jul-25 18:33N 47°39' W 122°23'0 0.0
2014-Jul-25 18:21N 47°39' W 122°23'0 0.0
2014-Jul-25 15:33N 47°39' W 122°23'0 0.0
2014-Jul-25 15:27N 47°39' W 122°23'0 0.0
2014-Jul-25 14:33N 47°39' W 122°23'0 0.0
2014-Jul-25 14:27N 47°39' W 122°23'0 0.0
2014-Jul-25 13:00N 47°39' W 122°23'0 0.0
2014-Jul-25 12:15N 47°39' W 122°23'0 0.0
2014-Jul-25 12:15N 47°39' W 122°23'0 0.0
2014-Jul-25 09:09N 47°39' W 122°23'0 0.0
2014-Jul-25 09:03N 47°39' W 122°23'0 0.0
2014-Jul-25 08:33N 47°39' W 122°23'0 0.0
2014-Jul-25 08:33N 47°39' W 122°23'0 0.0
2014-Jul-25 07:33N 47°39' W 122°23'0 0.0
2014-Jul-25 07:33N 47°39' W 122°23'0 0.0
2014-Jul-25 06:42N 47°39' W 122°23'0 0.0
2014-Jul-25 06:33N 47°39' W 122°23'0 0.0
2014-Jul-25 05:33N 47°39' W 122°23'0 0.0
2014-Jul-25 05:27N 47°39' W 122°23'0 0.0
2014-Jul-25 04:33N 47°39' W 122°23'0 0.0
2014-Jul-25 04:27N 47°39' W 122°23'0 0.0
2014-Jul-25 03:33N 47°39' W 122°23'0 0.0
2014-Jul-25 03:27N 47°39' W 122°23'0 0.0
2014-Jul-25 02:33N 47°39' W 122°23'0 0.0
2014-Jul-25 02:21N 47°39' W 122°23'0 0.0
2014-Jul-25 01:33N 47°39' W 122°23'0 0.0
2014-Jul-25 01:21N 47°39' W 122°23'0 0.0
2014-Jul-25 00:33N 47°39' W 122°23'0 0.0
2014-Jul-25 00:21N 47°39' W 122°23'0 0.0
2014-Jul-24 23:33N 47°39' W 122°23'0 0.0
2014-Jul-24 23:21N 47°39' W 122°23'0 0.0
2014-Jul-24 22:33N 47°39' W 122°23'0 0.0
2014-Jul-24 22:21N 47°39' W 122°23'0 0.0
2014-Jul-24 21:33N 47°39' W 122°23'0 0.0
2014-Jul-24 21:30N 47°39' W 122°23'0 0.0
2014-Jul-24 20:33N 47°39' W 122°23'0 0.0
2014-Jul-24 20:30N 47°39' W 122°23'0 0.0
2014-Jul-24 19:33N 47°39' W 122°23'0 0.0
2014-Jul-24 19:30N 47°39' W 122°23'0 0.0
2014-Jul-24 18:33N 47°39' W 122°23'0 0.1
2014-Jul-24 18:30N 47°39' W 122°23'0 0.0
2014-Jul-24 17:33N 47°39' W 122°23'0 0.0
2014-Jul-24 17:30N 47°39' W 122°23'0 0.0
2014-Jul-24 16:33N 47°39' W 122°23'0 0.0
2014-Jul-24 16:24N 47°39' W 122°23'0 0.0
2014-Jul-24 15:09N 47°39' W 122°23'0 0.0
2014-Jul-24 14:57N 47°39' W 122°23'0 0.0
2014-Jul-24 14:33N 47°39' W 122°23'0 0.0
2014-Jul-24 14:27N 47°39' W 122°23'0 0.0
2014-Jul-24 13:33N 47°39' W 122°23'0 0.0
2014-Jul-24 13:12N 47°39' W 122°23'0 0.0
2014-Jul-24 12:33N 47°39' W 122°23'0 0.0
2014-Jul-24 12:27N 47°39' W 122°23'0 0.0
2014-Jul-24 11:33N 47°39' W 122°23'0 0.0
2014-Jul-24 11:27N 47°39' W 122°23'0 0.0
2014-Jul-24 10:33N 47°39' W 122°23'0 0.0
2014-Jul-24 10:27N 47°39' W 122°23'0 0.0
2014-Jul-24 09:33N 47°39' W 122°23'0 0.0
2014-Jul-24 09:21N 47°39' W 122°23'0 0.0
2014-Jul-24 08:33N 47°39' W 122°23'0 0.0
2014-Jul-24 08:21N 47°39' W 122°23'0 0.0
2014-Jul-24 07:33N 47°39' W 122°23'0 0.0
2014-Jul-24 07:21N 47°39' W 122°23'0 0.0
2014-Jul-24 06:33N 47°39' W 122°23'0 0.0
2014-Jul-24 06:21N 47°39' W 122°23'0 0.0
2014-Jul-24 05:09N 47°39' W 122°23'0 0.0
2014-Jul-24 05:09N 47°39' W 122°23'0 0.0
2014-Jul-24 04:33N 47°39' W 122°23'0 0.0
2014-Jul-24 04:33N 47°39' W 122°23'0 0.0
2014-Jul-24 03:33N 47°39' W 122°23'0 0.0
2014-Jul-24 03:33N 47°39' W 122°23'0 0.0
2014-Jul-24 02:33N 47°39' W 122°23'0 0.0
2014-Jul-24 02:33N 47°39' W 122°23'0 0.0
2014-Jul-24 01:12N 47°39' W 122°23'0 0.0
2014-Jul-24 01:00N 47°39' W 122°23'0 0.0
2014-Jul-24 00:33N 47°39' W 122°23'0 0.0
2014-Jul-24 00:30N 47°39' W 122°23'0 0.0
2014-Jul-23 23:33N 47°39' W 122°23'0 0.0
2014-Jul-23 23:30N 47°39' W 122°23'0 0.0
2014-Jul-23 21:57N 47°39' W 122°23'0 0.0
2014-Jul-23 21:33N 47°39' W 122°23'0 0.0
2014-Jul-23 21:27N 47°39' W 122°23'0 0.0
2014-Jul-23 20:33N 47°39' W 122°23'0 0.0
2014-Jul-23 20:27N 47°39' W 122°23'0 0.0
2014-Jul-23 19:33N 47°39' W 122°23'0 0.0
2014-Jul-23 19:27N 47°39' W 122°23'0 0.0
2014-Jul-23 18:33N 47°39' W 122°23'0 0.0
2014-Jul-23 18:27N 47°39' W 122°23'0 0.0
2014-Jul-23 17:33N 47°39' W 122°23'0 0.0
2014-Jul-23 17:27N 47°39' W 122°23'0 0.0
2014-Jul-23 16:33N 47°39' W 122°23'0 0.0
2014-Jul-23 16:21N 47°39' W 122°23'0 0.0
2014-Jul-23 15:33N 47°39' W 122°23'0 0.0
2014-Jul-23 15:21N 47°39' W 122°23'0 0.0
2014-Jul-23 14:33N 47°39' W 122°23'0 0.0
2014-Jul-23 14:21N 47°39' W 122°23'0 0.0
2014-Jul-23 13:33N 47°39' W 122°23'0 0.0
2014-Jul-23 13:21N 47°39' W 122°23'0 0.0
2014-Jul-23 12:33N 47°39' W 122°23'0 0.0
2014-Jul-23 12:30N 47°39' W 122°23'0 0.0
2014-Jul-23 11:33N 47°39' W 122°23'0 0.0
2014-Jul-23 11:30N 47°39' W 122°23'0 0.0
2014-Jul-23 10:33N 47°39' W 122°23'0 0.0
2014-Jul-23 10:30N 47°39' W 122°23'0 0.0
2014-Jul-23 09:33N 47°39' W 122°23'0 0.0
2014-Jul-23 09:30N 47°39' W 122°23'0 0.0
2014-Jul-23 08:33N 47°39' W 122°23'0 0.0
2014-Jul-23 08:30N 47°39' W 122°23'0 0.0
2014-Jul-23 07:33N 47°39' W 122°23'0 0.0
2014-Jul-23 07:24N 47°39' W 122°23'0 0.0
2014-Jul-23 06:33N 47°39' W 122°23'0 0.0
2014-Jul-23 06:24N 47°39' W 122°23'0 0.0
2014-Jul-23 05:39N 47°39' W 122°23'0 0.0
2014-Jul-23 05:33N 47°39' W 122°23'0 0.0
2014-Jul-23 04:33N 47°39' W 122°23'0 0.0
2014-Jul-23 04:24N 47°39' W 122°23'0 0.0
2014-Jul-23 03:33N 47°39' W 122°23'0 0.0
2014-Jul-23 03:33N 47°39' W 122°23'0 0.0
2014-Jul-23 02:33N 47°39' W 122°23'0 0.0
2014-Jul-23 02:33N 47°39' W 122°23'0 0.0
2014-Jul-23 01:33N 47°39' W 122°23'0 0.0
2014-Jul-23 01:33N 47°39' W 122°23'0 0.0
2014-Jul-23 00:33N 47°39' W 122°23'0 0.0
2014-Jul-23 00:33N 47°39' W 122°23'  
Track history (hours):
 
Tides and Currents Weather Stations Pressure Air Temp Water Temp Dewpoint Dewpoint Depression Visibility Wind Speed Wind Dir Waves Ship Positions

Fire 1

More information available from US FCC via Universal Licensing System and Coast Guard Vessel Documentation Center.

Last reported at 2014-Aug-01 23:32 UTC. Time now 2014-Aug-02 00:19 UTC.
Position N 47°35' W 122°16'.

Length 15 m; draft 0.8 m.

Type: Other ship. MMSI: 367181280.

Date/timePositionNaut miles runAvg speedWind from/ knotsBaromVisibWave heightAir tempDewpointWater temp
2014-Aug-01 23:32N 47°35' W 122°16'0 0.2
2014-Aug-01 23:16N 47°35' W 122°16'0 0.2
2014-Aug-01 22:30N 47°35' W 122°17'0 0.9
2014-Aug-01 22:26N 47°35' W 122°17'0 0.3
2014-Aug-01 21:06N 47°35' W 122°16'0 0.0
2014-Aug-01 20:00N 47°35' W 122°16'0 0.0
2014-Aug-01 19:30N 47°35' W 122°16'0 0.0
2014-Aug-01 19:00N 47°35' W 122°16'0 0.0
2014-Aug-01 18:33N 47°35' W 122°16'0 0.0
2014-Aug-01 15:33N 47°35' W 122°16'1 4.4
2014-Aug-01 15:24N 47°35' W 122°17'4 4.9
2014-Aug-01 14:34N 47°39' W 122°20'0 5.2
2014-Aug-01 14:30N 47°39' W 122°20'2 1.8
2014-Aug-01 13:22N 47°39' W 122°23'0 0.0
2014-Aug-01 12:31N 47°39' W 122°23'0 0.0
2014-Aug-01 11:31N 47°39' W 122°23'0 0.0
2014-Aug-01 08:13N 47°39' W 122°23'0 0.0
2014-Aug-01 05:19N 47°39' W 122°23'0 0.0
2014-Aug-01 04:31N 47°39' W 122°23'0 0.0
2014-Aug-01 03:52N 47°39' W 122°23'0 0.0
2014-Aug-01 03:16N 47°39' W 122°23'0 0.0
2014-Aug-01 01:28N 47°39' W 122°23'0 0.0
2014-Aug-01 00:16N 47°39' W 122°23'0 0.0
2014-Jul-31 23:34N 47°39' W 122°23'0 0.0
2014-Jul-31 23:32N 47°39' W 122°23'3 3.3
2014-Jul-31 22:34N 47°39' W 122°18'0 4.0
2014-Jul-31 22:31N 47°39' W 122°18'4 2.5
2014-Jul-31 20:50N 47°35' W 122°16'0 0.0
2014-Jul-31 20:29N 47°35' W 122°16'0 0.0
2014-Jul-31 20:20N 47°35' W 122°16'0 0.6
2014-Jul-31 19:30N 47°35' W 122°17'0 0.1
2014-Jul-31 17:33N 47°35' W 122°16'1 3.6
2014-Jul-31 17:19N 47°36' W 122°17'4 4.9
2014-Jul-31 16:33N 47°39' W 122°20'0 5.1
2014-Jul-31 16:29N 47°39' W 122°20'2 2.1
2014-Jul-31 15:31N 47°39' W 122°23'0 0.0
2014-Jul-31 15:25N 47°39' W 122°23'0 0.0
2014-Jul-31 14:31N 47°39' W 122°23'0 0.0
2014-Jul-31 14:25N 47°39' W 122°23'0 0.0
2014-Jul-31 13:31N 47°39' W 122°23'0 0.0
2014-Jul-31 13:19N 47°39' W 122°23'0 0.0
2014-Jul-31 12:19N 47°39' W 122°23'0 0.0
2014-Jul-31 12:19N 47°39' W 122°23'0 0.0
2014-Jul-31 11:31N 47°39' W 122°23'0 0.0
2014-Jul-31 11:19N 47°39' W 122°23'0 0.0
2014-Jul-31 10:31N 47°39' W 122°23'0 0.0
2014-Jul-31 10:19N 47°39' W 122°23'0 0.0
2014-Jul-31 09:31N 47°39' W 122°23'0 0.0
2014-Jul-31 09:28N 47°39' W 122°23'0 0.0
2014-Jul-31 08:31N 47°39' W 122°23'0 0.0
2014-Jul-31 08:28N 47°39' W 122°23'0 0.0
2014-Jul-31 07:31N 47°39' W 122°23'0 0.0
2014-Jul-31 07:28N 47°39' W 122°23'0 0.0
2014-Jul-31 06:31N 47°39' W 122°23'0 0.0
2014-Jul-31 06:28N 47°39' W 122°23'0 0.0
2014-Jul-31 05:58N 47°39' W 122°23'0 0.0
2014-Jul-31 05:31N 47°39' W 122°23'0 0.0
2014-Jul-31 04:28N 47°39' W 122°23'0 0.1
2014-Jul-31 04:22N 47°39' W 122°23'0 0.0
2014-Jul-31 03:31N 47°39' W 122°23'0 0.0
2014-Jul-31 03:22N 47°39' W 122°23'0 0.0
2014-Jul-31 02:31N 47°39' W 122°23'0 0.0
2014-Jul-31 02:22N 47°39' W 122°23'0 0.0
2014-Jul-31 01:31N 47°39' W 122°23'0 0.0
2014-Jul-31 01:22N 47°39' W 122°23'0 0.0
2014-Jul-31 00:31N 47°39' W 122°23'0 0.0
2014-Jul-31 00:31N 47°39' W 122°23'0 0.0
2014-Jul-30 23:31N 47°39' W 122°23'0 0.0
2014-Jul-30 23:31N 47°39' W 122°23'0 0.0
2014-Jul-30 22:31N 47°39' W 122°23'0 0.0
2014-Jul-30 22:31N 47°39' W 122°23'0 0.0
2014-Jul-30 21:31N 47°39' W 122°23'0 0.0
2014-Jul-30 21:31N 47°39' W 122°23'0 0.0
2014-Jul-30 20:25N 47°39' W 122°23'0 0.0
2014-Jul-30 20:16N 47°39' W 122°23'0 0.0
2014-Jul-30 19:31N 47°39' W 122°23'0 0.0
2014-Jul-30 19:31N 47°39' W 122°23'0 0.0
2014-Jul-30 18:31N 47°39' W 122°23'0 0.0
2014-Jul-30 18:10N 47°39' W 122°23'0 0.0
2014-Jul-30 17:31N 47°39' W 122°23'0 0.0
2014-Jul-30 17:25N 47°39' W 122°23'0 0.0
2014-Jul-30 16:31N 47°39' W 122°23'0 0.0
2014-Jul-30 16:25N 47°39' W 122°23'0 0.0
2014-Jul-30 15:31N 47°39' W 122°23'0 0.0
2014-Jul-30 15:25N 47°39' W 122°23'0 0.0
2014-Jul-30 14:31N 47°39' W 122°23'0 0.0
2014-Jul-30 14:25N 47°39' W 122°23'0 0.0
2014-Jul-30 13:31N 47°39' W 122°23'0 0.0
2014-Jul-30 13:19N 47°39' W 122°23'0 0.0
2014-Jul-30 12:31N 47°39' W 122°23'0 0.0
2014-Jul-30 12:19N 47°39' W 122°23'0 0.0
2014-Jul-30 11:31N 47°39' W 122°23'0 0.0
2014-Jul-30 11:19N 47°39' W 122°23'0 0.0
2014-Jul-30 10:31N 47°39' W 122°23'0 0.1
2014-Jul-30 10:28N 47°39' W 122°23'0 0.0
2014-Jul-30 09:31N 47°39' W 122°23'0 0.1
2014-Jul-30 09:28N 47°39' W 122°23'0 0.0
2014-Jul-30 08:31N 47°39' W 122°23'0 0.1
2014-Jul-30 08:28N 47°39' W 122°23'0 0.0
2014-Jul-30 07:31N 47°39' W 122°23'0 0.0
2014-Jul-30 07:13N 47°39' W 122°23'0 0.0
2014-Jul-30 06:31N 47°39' W 122°23'0 0.1
2014-Jul-30 06:28N 47°39' W 122°23'0 0.0
2014-Jul-30 05:58N 47°39' W 122°23'0 0.0
2014-Jul-30 05:31N 47°39' W 122°23'0 0.0
2014-Jul-30 04:31N 47°39' W 122°23'0 0.0
2014-Jul-30 04:22N 47°39' W 122°23'0 0.0
2014-Jul-30 03:31N 47°39' W 122°23'0 0.0
2014-Jul-30 03:22N 47°39' W 122°23'0 0.0
2014-Jul-30 02:31N 47°39' W 122°23'0 0.0
2014-Jul-30 02:22N 47°39' W 122°23'0 0.0
2014-Jul-30 01:31N 47°39' W 122°23'0 0.0
2014-Jul-30 01:16N 47°39' W 122°23'0 0.0
2014-Jul-30 00:31N 47°39' W 122°23'0 0.0
2014-Jul-30 00:22N 47°39' W 122°23'0 0.0
2014-Jul-29 23:31N 47°39' W 122°23'0 0.0
2014-Jul-29 22:31N 47°39' W 122°23'0 0.0
2014-Jul-29 22:31N 47°39' W 122°23'0 0.0
2014-Jul-29 21:31N 47°39' W 122°23'0 0.0
2014-Jul-29 21:25N 47°39' W 122°23'0 0.0
2014-Jul-29 20:31N 47°39' W 122°23'0 0.0
2014-Jul-29 20:25N 47°39' W 122°23'0 0.0
2014-Jul-29 19:31N 47°39' W 122°23'0 0.0
2014-Jul-29 19:25N 47°39' W 122°23'0 0.0
2014-Jul-29 18:31N 47°39' W 122°23'0 0.0
2014-Jul-29 18:25N 47°39' W 122°23'0 0.0
2014-Jul-29 17:31N 47°39' W 122°23'0 0.0
2014-Jul-29 17:25N 47°39' W 122°23'0 0.0
2014-Jul-29 16:31N 47°39' W 122°23'0 0.0
2014-Jul-29 16:19N 47°39' W 122°23'0 0.0
2014-Jul-29 15:31N 47°39' W 122°23'0 0.0
2014-Jul-29 15:19N 47°39' W 122°23'0 0.0
2014-Jul-29 14:31N 47°39' W 122°23'0 0.0
2014-Jul-29 14:19N 47°39' W 122°23'0 0.0
2014-Jul-29 13:31N 47°39' W 122°23'0 0.0
2014-Jul-29 13:19N 47°39' W 122°23'0 0.0
2014-Jul-29 12:31N 47°39' W 122°23'0 0.0
2014-Jul-29 12:28N 47°39' W 122°23'0 0.0
2014-Jul-29 11:31N 47°39' W 122°23'0 0.0
2014-Jul-29 11:13N 47°39' W 122°23'0 0.0
2014-Jul-29 10:22N 47°39' W 122°23'0 0.0
2014-Jul-29 10:13N 47°39' W 122°23'0 0.0
2014-Jul-29 08:31N 47°39' W 122°23'0 0.0
2014-Jul-29 08:31N 47°39' W 122°23'0 0.0
2014-Jul-29 07:31N 47°39' W 122°23'0 0.0
2014-Jul-29 07:31N 47°39' W 122°23'0 0.0
2014-Jul-29 06:31N 47°39' W 122°23'0 0.0
2014-Jul-29 06:31N 47°39' W 122°23'0 0.0
2014-Jul-29 05:55N 47°39' W 122°23'0 0.0
2014-Jul-29 05:31N 47°39' W 122°23'0 0.0
2014-Jul-29 04:31N 47°39' W 122°23'0 0.0
2014-Jul-29 04:25N 47°39' W 122°23'0 0.0
2014-Jul-29 03:31N 47°39' W 122°23'0 0.0
2014-Jul-29 03:25N 47°39' W 122°23'0 0.0
2014-Jul-29 02:31N 47°39' W 122°23'0 0.0
2014-Jul-29 02:25N 47°39' W 122°23'0 0.0
2014-Jul-29 01:31N 47°39' W 122°23'0 0.0
2014-Jul-29 01:19N 47°39' W 122°23'0 0.0
2014-Jul-29 00:31N 47°39' W 122°23'0 0.0
2014-Jul-29 00:19N 47°39' W 122°23'0 0.0
2014-Jul-28 23:31N 47°39' W 122°23'0 0.0
2014-Jul-28 23:19N 47°39' W 122°23'0 0.0
2014-Jul-28 22:31N 47°39' W 122°23'0 0.0
2014-Jul-28 22:19N 47°39' W 122°23'0 0.0
2014-Jul-28 21:31N 47°39' W 122°23'0 0.0
2014-Jul-28 21:19N 47°39' W 122°23'0 0.0
2014-Jul-28 20:31N 47°39' W 122°23'0 0.0
2014-Jul-28 20:28N 47°39' W 122°23'0 0.0
2014-Jul-28 19:32N 47°39' W 122°23'0 0.0
2014-Jul-28 19:23N 47°39' W 122°23'0 0.0
2014-Jul-28 18:29N 47°39' W 122°23'0 0.0
2014-Jul-28 18:23N 47°39' W 122°23'0 0.0
2014-Jul-28 17:32N 47°39' W 122°23'0 0.0
2014-Jul-28 17:23N 47°39' W 122°23'0 0.0
2014-Jul-28 16:32N 47°39' W 122°23'0 0.0
2014-Jul-28 16:32N 47°39' W 122°23'0 0.0
2014-Jul-28 15:32N 47°39' W 122°23'0 0.0
2014-Jul-28 15:32N 47°39' W 122°23'0 0.0
2014-Jul-28 12:32N 47°39' W 122°23'0 0.0
2014-Jul-28 12:32N 47°39' W 122°23'0 0.0
2014-Jul-28 11:32N 47°39' W 122°23'0 0.0
2014-Jul-28 11:26N 47°39' W 122°23'0 0.0
2014-Jul-28 10:32N 47°39' W 122°23'0 0.1
2014-Jul-28 10:26N 47°39' W 122°23'0 0.0
2014-Jul-28 09:32N 47°39' W 122°23'0 0.0
2014-Jul-28 09:20N 47°39' W 122°23'0 0.0
2014-Jul-28 08:29N 47°39' W 122°23'0 0.0
2014-Jul-28 08:20N 47°39' W 122°23'0 0.0
2014-Jul-28 07:32N 47°39' W 122°23'0 0.0
2014-Jul-28 07:20N 47°39' W 122°23'0 0.0
2014-Jul-28 06:32N 47°39' W 122°23'0 0.0
2014-Jul-28 06:20N 47°39' W 122°23'0 0.0
2014-Jul-28 05:59N 47°39' W 122°23'0 0.0
2014-Jul-28 05:32N 47°39' W 122°23'0 0.0
2014-Jul-28 04:32N 47°39' W 122°23'0 0.0
2014-Jul-28 04:29N 47°39' W 122°23'0 0.0
2014-Jul-28 03:20N 47°39' W 122°23'0 0.0
2014-Jul-28 03:14N 47°39' W 122°23'0 0.0
2014-Jul-28 02:32N 47°39' W 122°23'0 0.0
2014-Jul-28 02:29N 47°39' W 122°23'0 0.0
2014-Jul-28 01:32N 47°39' W 122°23'0 0.0
2014-Jul-28 01:29N 47°39' W 122°23'0 0.0
2014-Jul-28 00:32N 47°39' W 122°23'0 0.0
2014-Jul-28 00:23N 47°39' W 122°23'0 0.0
2014-Jul-27 23:32N 47°39' W 122°23'0 0.0
2014-Jul-27 23:23N 47°39' W 122°23'0 0.0
2014-Jul-27 22:32N 47°39' W 122°23'0 0.0
2014-Jul-27 22:23N 47°39' W 122°23'0 0.0
2014-Jul-27 21:32N 47°39' W 122°23'0 0.0
2014-Jul-27 21:23N 47°39' W 122°23'0 0.0
2014-Jul-27 20:32N 47°39' W 122°23'0 0.0
2014-Jul-27 20:32N 47°39' W 122°23'0 0.0
2014-Jul-27 19:32N 47°39' W 122°23'0 0.0
2014-Jul-27 19:32N 47°39' W 122°23'0 0.0
2014-Jul-27 18:32N 47°39' W 122°23'0 0.0
2014-Jul-27 18:32N 47°39' W 122°23'0 0.0
2014-Jul-27 17:32N 47°39' W 122°23'0 0.0
2014-Jul-27 17:32N 47°39' W 122°23'0 0.0
2014-Jul-27 16:32N 47°39' W 122°23'0 0.0
2014-Jul-27 16:29N 47°39' W 122°23'0 0.0
2014-Jul-27 15:32N 47°39' W 122°23'0 0.0
2014-Jul-27 15:32N 47°39' W 122°23'0 0.0
2014-Jul-27 14:32N 47°39' W 122°23'0 0.0
2014-Jul-27 14:26N 47°39' W 122°23'0 0.0
2014-Jul-27 13:32N 47°39' W 122°23'0 0.0
2014-Jul-27 13:11N 47°39' W 122°23'0 0.0
2014-Jul-27 12:32N 47°39' W 122°23'0 0.0
2014-Jul-27 12:26N 47°39' W 122°23'0 0.0
2014-Jul-27 11:32N 47°39' W 122°23'0 0.0
2014-Jul-27 11:26N 47°39' W 122°23'0 0.0
2014-Jul-27 10:32N 47°39' W 122°23'0 0.1
2014-Jul-27 10:26N 47°39' W 122°23'0 0.0
2014-Jul-27 09:32N 47°39' W 122°23'0 0.0
2014-Jul-27 09:20N 47°39' W 122°23'0 0.0
2014-Jul-27 08:32N 47°39' W 122°23'0 0.0
2014-Jul-27 08:20N 47°39' W 122°23'0 0.0
2014-Jul-27 07:32N 47°39' W 122°23'0 0.0
2014-Jul-27 07:20N 47°39' W 122°23'0 0.0
2014-Jul-27 06:32N 47°39' W 122°23'0 0.0
2014-Jul-27 06:29N 47°39' W 122°23'0 0.0
2014-Jul-27 05:59N 47°39' W 122°23'0 0.0
2014-Jul-27 05:32N 47°39' W 122°23'0 0.0
2014-Jul-27 04:32N 47°39' W 122°23'0 0.0
2014-Jul-27 04:29N 47°39' W 122°23'0 0.0
2014-Jul-27 02:47N 47°39' W 122°23'0 0.0
2014-Jul-27 02:32N 47°39' W 122°23'0 0.0
2014-Jul-27 02:32N 47°39' W 122°23'0 0.0
2014-Jul-27 01:32N 47°39' W 122°23'0 0.0
2014-Jul-27 01:32N 47°39' W 122°23'0 0.0
2014-Jul-27 00:32N 47°39' W 122°23'0 0.0
2014-Jul-27 00:32N 47°39' W 122°23'0 0.0
2014-Jul-26 23:32N 47°39' W 122°23'0 0.0
2014-Jul-26 23:32N 47°39' W 122°23'0 0.0
2014-Jul-26 22:32N 47°39' W 122°23'0 0.1
2014-Jul-26 22:26N 47°39' W 122°23'0 0.0
2014-Jul-26 21:29N 47°39' W 122°23'0 0.0
2014-Jul-26 21:26N 47°39' W 122°23'0 0.0
2014-Jul-26 20:29N 47°39' W 122°23'0 0.0
2014-Jul-26 20:26N 47°39' W 122°23'1 1.6
2014-Jul-26 19:33N 47°39' W 122°21'0 6.1
2014-Jul-26 19:31N 47°39' W 122°21'1 0.8
2014-Jul-26 18:26N 47°39' W 122°19'0 0.0
2014-Jul-26 18:25N 47°39' W 122°19'2 2.1
2014-Jul-26 17:34N 47°39' W 122°22'0 2.9
2014-Jul-26 17:25N 47°39' W 122°23'0 0.0
2014-Jul-26 16:31N 47°39' W 122°23'0 0.0
2014-Jul-26 16:25N 47°39' W 122°23'0 0.0
2014-Jul-26 15:31N 47°39' W 122°23'0 0.0
2014-Jul-26 15:25N 47°39' W 122°23'0 0.0
2014-Jul-26 14:31N 47°39' W 122°23'0 0.0
2014-Jul-26 14:25N 47°39' W 122°23'0 0.0
2014-Jul-26 13:31N 47°39' W 122°23'0 0.0
2014-Jul-26 13:25N 47°39' W 122°23'0 0.0
2014-Jul-26 12:31N 47°39' W 122°23'0 0.0
2014-Jul-26 12:25N 47°39' W 122°23'0 0.0
2014-Jul-26 11:28N 47°39' W 122°23'0 0.0
2014-Jul-26 11:19N 47°39' W 122°23'0 0.0
2014-Jul-26 10:28N 47°39' W 122°23'0 0.0
2014-Jul-26 10:19N 47°39' W 122°23'0 0.0
2014-Jul-26 09:31N 47°39' W 122°23'0 0.0
2014-Jul-26 09:19N 47°39' W 122°23'0 0.0
2014-Jul-26 08:31N 47°39' W 122°23'0 0.0
2014-Jul-26 08:28N 47°39' W 122°23'0 0.0
2014-Jul-26 07:01N 47°39' W 122°23'0 0.0
2014-Jul-26 05:19N 47°39' W 122°23'0 0.0
2014-Jul-26 05:19N 47°39' W 122°23'0 0.0
2014-Jul-26 04:31N 47°39' W 122°23'0 0.0
2014-Jul-26 04:28N 47°39' W 122°23'0 0.0
2014-Jul-26 03:31N 47°39' W 122°23'0 0.0
2014-Jul-26 03:28N 47°39' W 122°23'0 0.0
2014-Jul-26 02:16N 47°39' W 122°23'0 0.0
2014-Jul-26 02:07N 47°39' W 122°23'0 0.0
2014-Jul-26 01:31N 47°39' W 122°23'0 0.0
2014-Jul-26 01:07N 47°39' W 122°23'0 0.0
2014-Jul-26 00:28N 47°39' W 122°23'0 0.0
2014-Jul-26 00:22N 47°39' W 122°23'0 0.0
2014-Jul-25 23:31N 47°39' W 122°23'0 0.0
2014-Jul-25 23:22N 47°39' W 122°23'0 0.0
2014-Jul-25 22:33N 47°39' W 122°23'0 0.0
2014-Jul-25 22:27N 47°39' W 122°23'0 0.0
2014-Jul-25 21:33N 47°39' W 122°23'0 0.0
2014-Jul-25 21:21N 47°39' W 122°23'0 0.0
2014-Jul-25 20:33N 47°39' W 122°23'0 0.0
2014-Jul-25 20:21N 47°39' W 122°23'0 0.0
2014-Jul-25 19:33N 47°39' W 122°23'0 0.0
2014-Jul-25 19:21N 47°39' W 122°23'0 0.0
2014-Jul-25 18:33N 47°39' W 122°23'0 0.0
2014-Jul-25 18:21N 47°39' W 122°23'0 0.0
2014-Jul-25 15:33N 47°39' W 122°23'0 0.0
2014-Jul-25 15:27N 47°39' W 122°23'0 0.0
2014-Jul-25 14:33N 47°39' W 122°23'0 0.0
2014-Jul-25 14:27N 47°39' W 122°23'0 0.0
2014-Jul-25 13:00N 47°39' W 122°23'0 0.0
2014-Jul-25 12:15N 47°39' W 122°23'0 0.0
2014-Jul-25 12:15N 47°39' W 122°23'0 0.0
2014-Jul-25 09:09N 47°39' W 122°23'0 0.0
2014-Jul-25 09:03N 47°39' W 122°23'0 0.0
2014-Jul-25 08:33N 47°39' W 122°23'0 0.0
2014-Jul-25 08:33N 47°39' W 122°23'0 0.0
2014-Jul-25 07:33N 47°39' W 122°23'0 0.0
2014-Jul-25 07:33N 47°39' W 122°23'0 0.0
2014-Jul-25 06:42N 47°39' W 122°23'0 0.0
2014-Jul-25 06:33N 47°39' W 122°23'0 0.0
2014-Jul-25 05:33N 47°39' W 122°23'0 0.0
2014-Jul-25 05:27N 47°39' W 122°23'0 0.0
2014-Jul-25 04:33N 47°39' W 122°23'0 0.0
2014-Jul-25 04:27N 47°39' W 122°23'0 0.0
2014-Jul-25 03:33N 47°39' W 122°23'0 0.0
2014-Jul-25 03:27N 47°39' W 122°23'0 0.0
2014-Jul-25 02:33N 47°39' W 122°23'0 0.0
2014-Jul-25 02:21N 47°39' W 122°23'0 0.0
2014-Jul-25 01:33N 47°39' W 122°23'0 0.0
2014-Jul-25 01:21N 47°39' W 122°23'0 0.0
2014-Jul-25 00:33N 47°39' W 122°23'0 0.0
2014-Jul-25 00:21N 47°39' W 122°23'0 0.0
2014-Jul-24 23:33N 47°39' W 122°23'0 0.0
2014-Jul-24 23:21N 47°39' W 122°23'0 0.0
2014-Jul-24 22:33N 47°39' W 122°23'0 0.0
2014-Jul-24 22:21N 47°39' W 122°23'0 0.0
2014-Jul-24 21:33N 47°39' W 122°23'0 0.0
2014-Jul-24 21:30N 47°39' W 122°23'0 0.0
2014-Jul-24 20:33N 47°39' W 122°23'0 0.0
2014-Jul-24 20:30N 47°39' W 122°23'0 0.0
2014-Jul-24 19:33N 47°39' W 122°23'0 0.0
2014-Jul-24 19:30N 47°39' W 122°23'0 0.0
2014-Jul-24 18:33N 47°39' W 122°23'0 0.1
2014-Jul-24 18:30N 47°39' W 122°23'0 0.0
2014-Jul-24 17:33N 47°39' W 122°23'0 0.0
2014-Jul-24 17:30N 47°39' W 122°23'0 0.0
2014-Jul-24 16:33N 47°39' W 122°23'0 0.0
2014-Jul-24 16:24N 47°39' W 122°23'0 0.0
2014-Jul-24 15:09N 47°39' W 122°23'0 0.0
2014-Jul-24 14:57N 47°39' W 122°23'0 0.0
2014-Jul-24 14:33N 47°39' W 122°23'0 0.0
2014-Jul-24 14:27N 47°39' W 122°23'0 0.0
2014-Jul-24 13:33N 47°39' W 122°23'0 0.0
2014-Jul-24 13:12N 47°39' W 122°23'0 0.0
2014-Jul-24 12:33N 47°39' W 122°23'0 0.0
2014-Jul-24 12:27N 47°39' W 122°23'0 0.0
2014-Jul-24 11:33N 47°39' W 122°23'0 0.0
2014-Jul-24 11:27N 47°39' W 122°23'0 0.0
2014-Jul-24 10:33N 47°39' W 122°23'0 0.0
2014-Jul-24 10:27N 47°39' W 122°23'0 0.0
2014-Jul-24 09:33N 47°39' W 122°23'0 0.0
2014-Jul-24 09:21N 47°39' W 122°23'0 0.0
2014-Jul-24 08:33N 47°39' W 122°23'0 0.0
2014-Jul-24 08:21N 47°39' W 122°23'0 0.0
2014-Jul-24 07:33N 47°39' W 122°23'0 0.0
2014-Jul-24 07:21N 47°39' W 122°23'0 0.0
2014-Jul-24 06:33N 47°39' W 122°23'0 0.0
2014-Jul-24 06:21N 47°39' W 122°23'0 0.0
2014-Jul-24 05:09N 47°39' W 122°23'0 0.0
2014-Jul-24 05:09N 47°39' W 122°23'0 0.0
2014-Jul-24 04:33N 47°39' W 122°23'0 0.0
2014-Jul-24 04:33N 47°39' W 122°23'0 0.0
2014-Jul-24 03:33N 47°39' W 122°23'0 0.0
2014-Jul-24 03:33N 47°39' W 122°23'0 0.0
2014-Jul-24 02:33N 47°39' W 122°23'0 0.0
2014-Jul-24 02:33N 47°39' W 122°23'0 0.0
2014-Jul-24 01:12N 47°39' W 122°23'0 0.0
2014-Jul-24 01:00N 47°39' W 122°23'0 0.0
2014-Jul-24 00:33N 47°39' W 122°23'0 0.0
2014-Jul-24 00:30N 47°39' W 122°23'0 0.0
2014-Jul-23 23:33N 47°39' W 122°23'0 0.0
2014-Jul-23 23:30N 47°39' W 122°23'0 0.0
2014-Jul-23 21:57N 47°39' W 122°23'0 0.0
2014-Jul-23 21:33N 47°39' W 122°23'0 0.0
2014-Jul-23 21:27N 47°39' W 122°23'0 0.0
2014-Jul-23 20:33N 47°39' W 122°23'0 0.0
2014-Jul-23 20:27N 47°39' W 122°23'0 0.0
2014-Jul-23 19:33N 47°39' W 122°23'0 0.0
2014-Jul-23 19:27N 47°39' W 122°23'0 0.0
2014-Jul-23 18:33N 47°39' W 122°23'0 0.0
2014-Jul-23 18:27N 47°39' W 122°23'0 0.0
2014-Jul-23 17:33N 47°39' W 122°23'0 0.0
2014-Jul-23 17:27N 47°39' W 122°23'0 0.0
2014-Jul-23 16:33N 47°39' W 122°23'0 0.0
2014-Jul-23 16:21N 47°39' W 122°23'0 0.0
2014-Jul-23 15:33N 47°39' W 122°23'0 0.0
2014-Jul-23 15:21N 47°39' W 122°23'0 0.0
2014-Jul-23 14:33N 47°39' W 122°23'0 0.0
2014-Jul-23 14:21N 47°39' W 122°23'0 0.0
2014-Jul-23 13:33N 47°39' W 122°23'0 0.0
2014-Jul-23 13:21N 47°39' W 122°23'0 0.0
2014-Jul-23 12:33N 47°39' W 122°23'0 0.0
2014-Jul-23 12:30N 47°39' W 122°23'0 0.0
2014-Jul-23 11:33N 47°39' W 122°23'0 0.0
2014-Jul-23 11:30N 47°39' W 122°23'0 0.0
2014-Jul-23 10:33N 47°39' W 122°23'0 0.0
2014-Jul-23 10:30N 47°39' W 122°23'0 0.0
2014-Jul-23 09:33N 47°39' W 122°23'0 0.0
2014-Jul-23 09:30N 47°39' W 122°23'0 0.0
2014-Jul-23 08:33N 47°39' W 122°23'0 0.0
2014-Jul-23 08:30N 47°39' W 122°23'0 0.0
2014-Jul-23 07:33N 47°39' W 122°23'0 0.0
2014-Jul-23 07:24N 47°39' W 122°23'0 0.0
2014-Jul-23 06:33N 47°39' W 122°23'0 0.0
2014-Jul-23 06:24N 47°39' W 122°23'0 0.0
2014-Jul-23 05:39N 47°39' W 122°23'0 0.0
2014-Jul-23 05:33N 47°39' W 122°23'0 0.0
2014-Jul-23 04:33N 47°39' W 122°23'0 0.0
2014-Jul-23 04:24N 47°39' W 122°23'0 0.0
2014-Jul-23 03:33N 47°39' W 122°23'0 0.0
2014-Jul-23 03:33N 47°39' W 122°23'0 0.0
2014-Jul-23 02:33N 47°39' W 122°23'0 0.0
2014-Jul-23 02:33N 47°39' W 122°23'0 0.0
2014-Jul-23 01:33N 47°39' W 122°23'0 0.0
2014-Jul-23 01:33N 47°39' W 122°23'0 0.0
2014-Jul-23 00:33N 47°39' W 122°23'0 0.0
2014-Jul-23 00:33N 47°39' W 122°23'  

Dump ship's entire track history